Time,TemperatureF,DewpointF,PressureIn,WindDirection,WindDirectionDegrees,WindSpeedMPH,WindSpeedGustMPH,Humidity,HourlyPrecipIn,Conditions,Clouds,dailyrainin,SoftwareType,DateUTC
2013-12-07 00:00:00,40.0,37.6,30.08,ESE,123,12.0,27.0,91,0.00,,---,0.00,VWS V14.01,2013-12-07 08:00:00,
2013-12-07 00:05:00,39.8,37.7,30.10,SE,139,4.0,20.0,92,0.01,,---,0.01,VWS V14.01,2013-12-07 08:05:00,
2013-12-07 00:10:00,39.8,38.0,30.08,SE,134,7.0,20.0,93,0.01,,---,0.01,VWS V14.01,2013-12-07 08:10:00,
2013-12-07 00:15:00,39.7,37.8,30.09,SE,134,12.0,20.0,93,0.01,,---,0.01,VWS V14.01,2013-12-07 08:15:00,
2013-12-07 00:20:00,39.7,37.8,30.09,ESE,115,8.0,20.0,93,0.01,,---,0.01,VWS V14.01,2013-12-07 08:20:00,
2013-12-07 00:25:00,39.7,37.8,30.10,SE,125,10.0,20.0,93,0.01,,---,0.01,VWS V14.01,2013-12-07 08:25:00,
2013-12-07 00:30:00,39.8,38.2,30.10,SE,127,11.0,11.0,94,0.01,,---,0.01,VWS V14.01,2013-12-07 08:30:00,
2013-12-07 00:35:00,39.9,38.3,30.09,ESE,119,4.0,11.0,94,0.01,,---,0.01,VWS V14.01,2013-12-07 08:35:00,
2013-12-07 00:40:00,39.9,38.3,30.08,ESE,120,2.0,12.0,94,0.01,,---,0.01,VWS V14.01,2013-12-07 08:40:00,
2013-12-07 00:45:00,40.0,38.4,30.07,ESE,110,12.0,13.0,94,0.01,,---,0.01,VWS V14.01,2013-12-07 08:45:00,
2013-12-07 00:50:00,39.9,38.3,30.08,SE,125,6.0,18.0,94,0.01,,---,0.01,VWS V14.01,2013-12-07 08:50:00,
2013-12-07 00:55:00,40.0,38.4,30.08,East,99,5.0,18.0,94,0.01,,---,0.01,VWS V14.01,2013-12-07 08:55:00,
2013-12-07 01:00:00,40.1,38.5,30.08,ESE,118,4.0,8.0,94,0.01,,---,0.01,VWS V14.01,2013-12-07 09:00:00,
2013-12-07 01:05:00,40.0,38.4,30.08,SE,135,6.0,12.0,94,0.01,,---,0.01,VWS V14.01,2013-12-07 09:05:00,
2013-12-07 01:10:00,40.0,38.4,30.07,SE,134,10.0,15.0,94,0.01,,---,0.01,VWS V14.01,2013-12-07 09:10:00,
2013-12-07 01:15:00,39.9,38.3,30.07,SE,125,8.0,15.0,94,0.01,,---,0.01,VWS V14.01,2013-12-07 09:15:00,
2013-12-07 01:20:00,39.9,38.3,30.07,ESE,121,6.0,16.0,94,0.01,,---,0.01,VWS V14.01,2013-12-07 09:20:00,
2013-12-07 01:25:00,39.9,38.3,30.07,ESE,108,12.0,16.0,94,0.01,,---,0.01,VWS V14.01,2013-12-07 09:25:00,
2013-12-07 01:30:00,39.9,38.3,30.07,SE,131,8.0,9.0,94,0.00,,---,0.01,VWS V14.01,2013-12-07 09:30:00,
2013-12-07 01:35:00,39.9,38.3,30.08,SE,124,10.0,12.0,94,0.00,,---,0.01,VWS V14.01,2013-12-07 09:35:00,
2013-12-07 01:40:00,39.9,38.3,30.08,SE,135,4.0,12.0,94,0.00,,---,0.01,VWS V14.01,2013-12-07 09:40:00,
2013-12-07 01:45:00,39.9,38.3,30.07,SE,132,9.0,14.0,94,0.00,,---,0.01,VWS V14.01,2013-12-07 09:45:00,
2013-12-07 01:50:00,39.8,38.2,30.08,SW,220,3.0,18.0,94,0.00,,---,0.01,VWS V14.01,2013-12-07 09:50:00,
2013-12-07 01:55:00,39.7,37.8,30.07,SE,125,12.0,19.0,93,0.00,,---,0.01,VWS V14.01,2013-12-07 09:55:00,
2013-12-07 02:00:00,39.6,38.0,30.08,SE,130,9.0,12.0,94,0.00,,---,0.01,VWS V14.01,2013-12-07 10:00:00,
2013-12-07 02:05:00,39.5,37.9,30.08,SE,140,9.0,14.0,94,0.00,,---,0.01,VWS V14.01,2013-12-07 10:05:00,
2013-12-07 02:10:00,39.4,37.8,30.08,SE,128,9.0,14.0,94,0.00,,---,0.01,VWS V14.01,2013-12-07 10:10:00,
2013-12-07 02:15:00,39.4,37.8,30.08,ESE,120,6.0,16.0,94,0.00,,---,0.01,VWS V14.01,2013-12-07 10:15:00,
2013-12-07 02:20:00,39.5,37.9,30.09,SE,125,13.0,16.0,94,0.00,,---,0.01,VWS V14.01,2013-12-07 10:20:00,
2013-12-07 02:25:00,39.4,37.8,30.09,ESE,120,8.0,16.0,94,0.00,,---,0.01,VWS V14.01,2013-12-07 10:25:00,
2013-12-07 02:30:00,39.5,37.9,30.09,SE,130,9.0,11.0,94,0.00,,---,0.01,VWS V14.01,2013-12-07 10:30:00,
2013-12-07 02:35:00,39.5,37.9,30.10,ESE,122,4.0,11.0,94,0.00,,---,0.01,VWS V14.01,2013-12-07 10:35:00,
2013-12-07 02:40:00,39.5,37.9,30.09,ESE,109,5.0,11.0,94,0.00,,---,0.01,VWS V14.01,2013-12-07 10:40:00,
2013-12-07 02:45:00,39.4,37.8,30.09,SE,127,2.0,11.0,94,0.00,,---,0.01,VWS V14.01,2013-12-07 10:45:00,
2013-12-07 02:50:00,39.4,37.8,30.10,SE,132,1.0,11.0,94,0.00,,---,0.01,VWS V14.01,2013-12-07 10:50:00,
2013-12-07 02:55:00,39.4,37.8,30.09,SE,130,5.0,11.0,94,0.00,,---,0.01,VWS V14.01,2013-12-07 10:55:00,
2013-12-07 03:00:00,39.4,38.1,30.10,ESE,122,5.0,7.0,95,0.00,,---,0.01,VWS V14.01,2013-12-07 11:00:00,
2013-12-07 03:05:00,39.6,38.0,30.09,ESE,117,10.0,11.0,94,0.00,,---,0.01,VWS V14.01,2013-12-07 11:05:00,
2013-12-07 03:10:00,39.7,38.1,30.09,SE,140,4.0,11.0,94,0.00,,---,0.01,VWS V14.01,2013-12-07 11:10:00,
2013-12-07 03:15:00,39.7,38.1,30.09,SE,129,5.0,11.0,94,0.00,,---,0.01,VWS V14.01,2013-12-07 11:15:00,
2013-12-07 03:20:00,39.7,38.1,30.10,SE,142,5.0,11.0,94,0.00,,---,0.01,VWS V14.01,2013-12-07 11:20:00,
2013-12-07 03:25:00,39.6,38.3,30.10,SE,134,5.0,11.0,95,0.00,,---,0.01,VWS V14.01,2013-12-07 11:25:00,
2013-12-07 03:30:00,39.5,37.9,30.10,SE,135,4.0,5.0,94,0.00,,---,0.01,VWS V14.01,2013-12-07 11:30:00,
2013-12-07 03:35:00,39.3,37.7,30.10,SE,139,3.0,6.0,94,0.00,,---,0.01,VWS V14.01,2013-12-07 11:35:00,
2013-12-07 03:40:00,39.2,37.6,30.10,SE,138,4.0,7.0,94,0.00,,---,0.01,VWS V14.01,2013-12-07 11:40:00,
2013-12-07 03:45:00,39.1,37.5,30.10,SE,133,3.0,7.0,94,0.00,,---,0.01,VWS V14.01,2013-12-07 11:45:00,
2013-12-07 03:50:00,39.0,37.4,30.10,ESE,122,3.0,8.0,94,0.00,,---,0.01,VWS V14.01,2013-12-07 11:50:00,
2013-12-07 03:55:00,38.9,37.3,30.10,ESE,122,4.0,8.0,94,0.00,,---,0.01,VWS V14.01,2013-12-07 11:55:00,
2013-12-07 04:00:00,38.9,37.3,30.11,ESE,122,3.0,4.0,94,0.00,,---,0.01,VWS V14.01,2013-12-07 12:00:00,
2013-12-07 04:05:00,38.8,37.2,30.11,ESE,123,3.0,7.0,94,0.00,,---,0.01,VWS V14.01,2013-12-07 12:05:00,
2013-12-07 04:10:00,38.7,37.1,30.11,ESE,115,5.0,7.0,94,0.00,,---,0.01,VWS V14.01,2013-12-07 12:10:00,
2013-12-07 04:15:00,38.6,37.0,30.11,ESE,116,3.0,8.0,94,0.00,,---,0.01,VWS V14.01,2013-12-07 12:15:00,
2013-12-07 04:20:00,38.5,36.9,30.11,ESE,116,2.0,8.0,94,0.00,,---,0.01,VWS V14.01,2013-12-07 12:20:00,
2013-12-07 04:25:00,38.3,36.7,30.11,ESE,116,0.0,8.0,94,0.00,,---,0.01,VWS V14.01,2013-12-07 12:25:00,
2013-12-07 04:30:00,38.3,36.7,30.11,ESE,116,0.0,0.0,94,0.00,,---,0.01,VWS V14.01,2013-12-07 12:30:00,
2013-12-07 04:35:00,38.1,36.5,30.12,ESE,116,0.0,2.0,94,0.00,,---,0.01,VWS V14.01,2013-12-07 12:35:00,
2013-12-07 04:40:00,38.0,36.4,30.12,ESE,116,3.0,4.0,94,0.00,,---,0.01,VWS V14.01,2013-12-07 12:40:00,
2013-12-07 04:45:00,37.9,36.3,30.12,ESE,116,3.0,6.0,94,0.00,,---,0.01,VWS V14.01,2013-12-07 12:45:00,
2013-12-07 04:50:00,37.8,36.2,30.11,ESE,116,3.0,6.0,94,0.00,,---,0.01,VWS V14.01,2013-12-07 12:50:00,
2013-12-07 04:55:00,37.7,36.1,30.12,ESE,116,2.0,6.0,94,0.00,,---,0.01,VWS V14.01,2013-12-07 12:55:00,
2013-12-07 05:00:00,37.7,36.1,30.12,ESE,116,2.0,4.0,94,0.00,,---,0.01,VWS V14.01,2013-12-07 13:00:00,
2013-12-07 05:05:00,37.7,36.1,30.12,ESE,116,1.0,4.0,94,0.00,,---,0.01,VWS V14.01,2013-12-07 13:05:00,
2013-12-07 05:10:00,37.6,36.0,30.12,ESE,116,1.0,5.0,94,0.00,,---,0.01,VWS V14.01,2013-12-07 13:10:00,
2013-12-07 05:15:00,37.5,35.9,30.13,ESE,116,3.0,5.0,94,0.00,,---,0.01,VWS V14.01,2013-12-07 13:15:00,
2013-12-07 05:20:00,37.5,35.9,30.13,ESE,116,0.0,5.0,94,0.00,,---,0.01,VWS V14.01,2013-12-07 13:20:00,
2013-12-07 05:25:00,37.5,35.9,30.13,ESE,116,0.0,5.0,94,0.00,,---,0.01,VWS V14.01,2013-12-07 13:25:00,
2013-12-07 05:30:00,37.5,35.9,30.13,ESE,116,0.0,0.0,94,0.00,,---,0.01,VWS V14.01,2013-12-07 13:30:00,
2013-12-07 05:35:00,37.4,35.8,30.13,ESE,116,0.0,2.0,94,0.00,,---,0.01,VWS V14.01,2013-12-07 13:35:00,
2013-12-07 05:40:00,37.4,35.8,30.13,ESE,116,0.0,3.0,94,0.00,,---,0.01,VWS V14.01,2013-12-07 13:40:00,
2013-12-07 05:45:00,37.3,35.7,30.13,ESE,116,2.0,3.0,94,0.00,,---,0.01,VWS V14.01,2013-12-07 13:45:00,
2013-12-07 05:50:00,37.3,35.7,30.13,ESE,116,0.0,3.0,94,0.00,,---,0.01,VWS V14.01,2013-12-07 13:50:00,
2013-12-07 05:55:00,37.2,35.6,30.13,ESE,116,2.0,3.0,94,0.00,,---,0.01,VWS V14.01,2013-12-07 13:55:00,
2013-12-07 06:00:00,37.1,35.5,30.13,ESE,116,0.0,0.0,94,0.00,,---,0.01,VWS V14.01,2013-12-07 14:00:00,
2013-12-07 06:05:00,37.1,35.5,30.14,ESE,116,2.0,2.0,94,0.00,,---,0.01,VWS V14.01,2013-12-07 14:05:00,
2013-12-07 06:10:00,37.0,35.4,30.14,ESE,116,0.0,2.0,94,0.00,,---,0.01,VWS V14.01,2013-12-07 14:10:00,
2013-12-07 06:15:00,36.9,35.3,30.14,ESE,116,0.0,2.0,94,0.00,,---,0.01,VWS V14.01,2013-12-07 14:15:00,
2013-12-07 06:20:00,36.8,35.2,30.14,ESE,116,0.0,2.0,94,0.00,,---,0.01,VWS V14.01,2013-12-07 14:20:00,
2013-12-07 06:25:00,36.7,35.1,30.14,ESE,116,0.0,2.0,94,0.00,,---,0.01,VWS V14.01,2013-12-07 14:25:00,
2013-12-07 06:30:00,36.5,34.7,30.15,ESE,116,0.0,0.0,93,0.00,,---,0.01,VWS V14.01,2013-12-07 14:30:00,
2013-12-07 06:35:00,36.3,34.5,30.15,ESE,116,0.0,2.0,93,0.00,,---,0.01,VWS V14.01,2013-12-07 14:35:00,
2013-12-07 06:40:00,36.2,34.4,30.15,ESE,116,0.0,2.0,93,0.00,,---,0.01,VWS V14.01,2013-12-07 14:40:00,
2013-12-07 06:45:00,35.9,34.1,30.15,ESE,116,0.0,2.0,93,0.00,,---,0.01,VWS V14.01,2013-12-07 14:45:00,
2013-12-07 06:50:00,35.8,34.2,30.16,ESE,116,0.0,2.0,94,0.00,,---,0.01,VWS V14.01,2013-12-07 14:50:00,
2013-12-07 06:55:00,35.8,34.0,30.16,ESE,116,0.0,2.0,93,0.00,,---,0.01,VWS V14.01,2013-12-07 14:55:00,
2013-12-07 07:00:00,35.8,34.0,30.16,ESE,116,0.0,2.0,93,0.00,,---,0.01,VWS V14.01,2013-12-07 15:00:00,
2013-12-07 07:05:00,35.7,34.2,30.16,ESE,116,1.0,3.0,94,0.00,,---,0.01,VWS V14.01,2013-12-07 15:05:00,
2013-12-07 07:10:00,35.6,33.8,30.16,ESE,116,0.0,3.0,93,0.00,,---,0.01,VWS V14.01,2013-12-07 15:10:00,
2013-12-07 07:15:00,35.5,34.0,30.16,ESE,116,0.0,3.0,94,0.00,,---,0.01,VWS V14.01,2013-12-07 15:15:00,
2013-12-07 07:20:00,35.4,33.6,30.17,ESE,116,0.0,3.0,93,0.00,,---,0.01,VWS V14.01,2013-12-07 15:20:00,
2013-12-07 07:25:00,35.3,33.5,30.17,ESE,116,0.0,3.0,93,0.00,,---,0.01,VWS V14.01,2013-12-07 15:25:00,
2013-12-07 07:30:00,35.2,33.4,30.17,ESE,116,3.0,3.0,93,0.00,,---,0.01,VWS V14.01,2013-12-07 15:30:00,
2013-12-07 07:35:00,35.1,33.5,30.18,ESE,116,1.0,3.0,94,0.00,,---,0.01,VWS V14.01,2013-12-07 15:35:00,
2013-12-07 07:40:00,35.2,33.7,30.18,ESE,116,1.0,3.0,94,0.00,,---,0.01,VWS V14.01,2013-12-07 15:40:00,
2013-12-07 07:45:00,35.3,33.8,30.18,ESE,116,0.0,3.0,94,0.00,,---,0.01,VWS V14.01,2013-12-07 15:45:00,
2013-12-07 07:50:00,35.5,34.0,30.18,ESE,116,1.0,3.0,94,0.00,,---,0.01,VWS V14.01,2013-12-07 15:50:00,
2013-12-07 07:55:00,35.7,34.2,30.18,ESE,116,0.0,3.0,94,0.00,,---,0.01,VWS V14.01,2013-12-07 15:55:00,
2013-12-07 08:00:00,35.9,34.3,30.19,ESE,116,0.0,0.0,94,0.00,,---,0.01,VWS V14.01,2013-12-07 16:00:00,
2013-12-07 08:05:00,36.1,34.5,30.19,ESE,116,1.0,2.0,94,0.00,,---,0.01,VWS V14.01,2013-12-07 16:05:00,
2013-12-07 08:10:00,36.5,34.9,30.19,ESE,116,0.0,3.0,94,0.00,,---,0.01,VWS V14.01,2013-12-07 16:10:00,
2013-12-07 08:15:00,36.8,35.2,30.19,ESE,116,1.0,3.0,94,0.00,,---,0.01,VWS V14.01,2013-12-07 16:15:00,
2013-12-07 08:21:00,37.1,35.5,30.19,ESE,116,0.0,3.0,94,0.00,,---,0.01,VWS V14.01,2013-12-07 16:21:00,
2013-12-07 08:26:00,37.4,35.8,30.19,ESE,116,0.0,3.0,94,0.00,,---,0.01,VWS V14.01,2013-12-07 16:26:00,
2013-12-07 08:31:00,37.7,36.1,30.20,ESE,116,3.0,3.0,94,0.00,,---,0.01,VWS V14.01,2013-12-07 16:31:00,
2013-12-07 08:36:00,38.1,36.5,30.20,ESE,116,0.0,3.0,94,0.00,,---,0.01,VWS V14.01,2013-12-07 16:36:00,
2013-12-07 08:41:00,38.5,36.9,30.20,ESE,116,0.0,3.0,94,0.00,,---,0.01,VWS V14.01,2013-12-07 16:41:00,
2013-12-07 08:46:00,38.8,37.0,30.20,ESE,116,0.0,3.0,93,0.00,,---,0.01,VWS V14.01,2013-12-07 16:46:00,
2013-12-07 08:51:00,39.1,37.0,30.20,ESE,116,0.0,3.0,92,0.00,,---,0.01,VWS V14.01,2013-12-07 16:51:00,
2013-12-07 08:56:00,39.4,37.3,30.20,ESE,116,0.0,3.0,92,0.00,,---,0.01,VWS V14.01,2013-12-07 16:56:00,
2013-12-07 09:01:00,39.7,37.3,30.21,ESE,116,0.0,0.0,91,0.00,,---,0.01,VWS V14.01,2013-12-07 17:01:00,
2013-12-07 09:06:00,40.1,37.7,30.21,ESE,116,0.0,2.0,91,0.00,,---,0.01,VWS V14.01,2013-12-07 17:06:00,
2013-12-07 09:11:00,40.5,38.1,30.21,ESE,116,0.0,4.0,91,0.00,,---,0.01,VWS V14.01,2013-12-07 17:11:00,
2013-12-07 09:16:00,40.9,38.2,30.22,ESE,116,0.0,4.0,90,0.00,,---,0.01,VWS V14.01,2013-12-07 17:16:00,
2013-12-07 09:21:00,41.2,38.5,30.22,ESE,117,0.0,4.0,90,0.00,,---,0.01,VWS V14.01,2013-12-07 17:21:00,
2013-12-07 09:26:00,41.4,38.4,30.22,ESE,118,2.0,4.0,89,0.00,,---,0.01,VWS V14.01,2013-12-07 17:26:00,
2013-12-07 09:31:00,41.7,38.7,30.21,ESE,119,0.0,3.0,89,0.00,,---,0.01,VWS V14.01,2013-12-07 17:31:00,
2013-12-07 09:36:00,42.0,38.4,30.22,SE,130,3.0,5.0,87,0.00,,---,0.01,VWS V14.01,2013-12-07 17:36:00,
2013-12-07 09:41:00,42.2,38.3,30.22,SSW,194,2.0,6.0,86,0.00,,---,0.01,VWS V14.01,2013-12-07 17:41:00,
2013-12-07 09:46:00,42.4,38.2,30.22,SSW,205,0.0,6.0,85,0.00,,---,0.01,VWS V14.01,2013-12-07 17:46:00,
2013-12-07 09:51:00,42.6,37.5,30.22,SW,228,3.0,6.0,82,0.00,,---,0.01,VWS V14.01,2013-12-07 17:51:00,
2013-12-07 09:56:00,42.7,36.3,30.22,West,267,3.0,6.0,78,0.00,,---,0.01,VWS V14.01,2013-12-07 17:56:00,
2013-12-07 10:01:00,42.8,35.8,30.22,West,273,3.0,5.0,76,0.00,,---,0.01,VWS V14.01,2013-12-07 18:01:00,
2013-12-07 10:06:00,42.9,36.2,30.22,West,275,1.0,5.0,77,0.00,,---,0.01,VWS V14.01,2013-12-07 18:06:00,
2013-12-07 10:11:00,43.1,36.1,30.22,WNW,290,4.0,5.0,76,0.00,,---,0.01,VWS V14.01,2013-12-07 18:11:00,
2013-12-07 10:16:00,43.3,36.6,30.22,NW,312,3.0,7.0,77,0.00,,---,0.01,VWS V14.01,2013-12-07 18:16:00,
2013-12-07 10:21:00,43.4,36.3,30.22,NW,312,2.0,7.0,76,0.00,,---,0.01,VWS V14.01,2013-12-07 18:21:00,
2013-12-07 10:26:00,43.7,36.0,30.21,NW,316,4.0,7.0,74,0.00,,---,0.01,VWS V14.01,2013-12-07 18:26:00,
2013-12-07 10:31:00,43.9,36.5,30.22,NW,317,3.0,4.0,75,0.00,,---,0.01,VWS V14.01,2013-12-07 18:31:00,
2013-12-07 10:36:00,44.3,36.9,30.22,NW,314,2.0,5.0,75,0.00,,---,0.01,VWS V14.01,2013-12-07 18:36:00,
2013-12-07 10:41:00,44.3,36.2,30.21,NW,315,2.0,7.0,73,0.00,,---,0.01,VWS V14.01,2013-12-07 18:41:00,
2013-12-07 10:46:00,44.5,37.1,30.22,NW,315,2.0,7.0,75,0.00,,---,0.01,VWS V14.01,2013-12-07 18:46:00,
2013-12-07 10:51:00,44.6,37.2,30.22,NW,315,2.0,7.0,75,0.00,,---,0.01,VWS V14.01,2013-12-07 18:51:00,
2013-12-07 10:56:00,44.8,37.0,30.21,NW,318,4.0,7.0,74,0.00,,---,0.01,VWS V14.01,2013-12-07 18:56:00,
2013-12-07 11:01:00,45.1,35.9,30.21,NW,324,4.0,7.0,70,0.00,,---,0.01,VWS V14.01,2013-12-07 19:01:00,
2013-12-07 11:06:00,45.2,36.4,30.21,North,354,4.0,7.0,71,0.00,,---,0.01,VWS V14.01,2013-12-07 19:06:00,
2013-12-07 11:11:00,45.2,34.5,30.21,North,351,4.0,8.0,66,0.00,,---,0.01,VWS V14.01,2013-12-07 19:11:00,
2013-12-07 11:16:00,45.3,34.6,30.20,North,350,0.0,8.0,66,0.00,,---,0.01,VWS V14.01,2013-12-07 19:16:00,
2013-12-07 11:21:00,45.3,34.6,30.20,North,350,4.0,8.0,66,0.00,,---,0.01,VWS V14.01,2013-12-07 19:21:00,
2013-12-07 11:26:00,45.2,34.5,30.20,NNW,331,4.0,8.0,66,0.00,,---,0.01,VWS V14.01,2013-12-07 19:26:00,
2013-12-07 11:31:00,45.4,34.0,30.20,NNW,331,4.0,8.0,64,0.00,,---,0.01,VWS V14.01,2013-12-07 19:31:00,
2013-12-07 11:36:00,45.4,34.0,30.20,NNW,339,3.0,10.0,64,0.00,,---,0.01,VWS V14.01,2013-12-07 19:36:00,
2013-12-07 11:41:00,45.5,34.4,30.20,NNW,338,4.0,10.0,65,0.00,,---,0.01,VWS V14.01,2013-12-07 19:41:00,
2013-12-07 11:46:00,45.5,34.0,30.20,North,350,3.0,10.0,64,0.00,,---,0.01,VWS V14.01,2013-12-07 19:46:00,
2013-12-07 11:51:00,45.4,34.3,30.20,NNW,330,2.0,11.0,65,0.00,,---,0.01,VWS V14.01,2013-12-07 19:51:00,
2013-12-07 11:56:00,45.4,34.3,30.20,NW,322,2.0,11.0,65,0.00,,---,0.01,VWS V14.01,2013-12-07 19:56:00,
2013-12-07 12:01:00,45.4,34.3,30.20,NNW,334,5.0,8.0,65,0.00,,---,0.01,VWS V14.01,2013-12-07 20:01:00,
2013-12-07 12:06:00,45.7,33.8,30.20,NW,325,4.0,8.0,63,0.00,,---,0.01,VWS V14.01,2013-12-07 20:06:00,
2013-12-07 12:11:00,46.0,34.5,30.20,NNW,328,2.0,13.0,64,0.00,,---,0.01,VWS V14.01,2013-12-07 20:11:00,
2013-12-07 12:16:00,46.1,33.4,30.19,NNW,331,1.0,13.0,61,0.00,,---,0.01,VWS V14.01,2013-12-07 20:16:00,
2013-12-07 12:21:00,46.2,33.1,30.19,NNW,339,6.0,13.0,60,0.00,,---,0.01,VWS V14.01,2013-12-07 20:21:00,
2013-12-07 12:26:00,46.2,33.1,30.19,North,356,7.0,13.0,60,0.00,,---,0.01,VWS V14.01,2013-12-07 20:26:00,
2013-12-07 12:31:00,46.5,33.8,30.18,North,356,8.0,8.0,61,0.00,,---,0.01,VWS V14.01,2013-12-07 20:31:00,
2013-12-07 12:36:00,46.7,32.7,30.18,NNW,339,4.0,11.0,58,0.00,,---,0.01,VWS V14.01,2013-12-07 20:36:00,
2013-12-07 12:41:00,46.7,33.2,30.18,NNW,341,6.0,11.0,59,0.00,,---,0.01,VWS V14.01,2013-12-07 20:41:00,
2013-12-07 12:46:00,46.7,32.3,30.18,North,359,7.0,11.0,57,0.00,,---,0.01,VWS V14.01,2013-12-07 20:46:00,
2013-12-07 12:51:00,46.7,32.3,30.17,North,0,6.0,12.0,57,0.00,,---,0.01,VWS V14.01,2013-12-07 20:51:00,
2013-12-07 12:56:00,46.7,33.2,30.17,North,353,6.0,12.0,59,0.00,,---,0.01,VWS V14.01,2013-12-07 20:56:00,
2013-12-07 13:01:00,46.9,33.8,30.17,North,0,2.0,6.0,60,0.00,,---,0.01,VWS V14.01,2013-12-07 21:01:00,
2013-12-07 13:06:00,47.1,33.9,30.18,North,357,8.0,9.0,60,0.00,,---,0.01,VWS V14.01,2013-12-07 21:06:00,
2013-12-07 13:11:00,46.8,33.2,30.17,NNW,338,4.0,9.0,59,0.00,,---,0.01,VWS V14.01,2013-12-07 21:11:00,
2013-12-07 13:16:00,46.7,33.6,30.17,NNW,338,2.0,9.0,60,0.00,,---,0.01,VWS V14.01,2013-12-07 21:16:00,
2013-12-07 13:21:00,46.7,33.6,30.18,NNW,339,12.0,12.0,60,0.00,,---,0.01,VWS V14.01,2013-12-07 21:21:00,
2013-12-07 13:26:00,46.9,33.8,30.17,NNW,342,6.0,13.0,60,0.00,,---,0.01,VWS V14.01,2013-12-07 21:26:00,
2013-12-07 13:31:00,46.9,33.8,30.17,NNW,333,4.0,7.0,60,0.00,,---,0.01,VWS V14.01,2013-12-07 21:31:00,
2013-12-07 13:36:00,46.9,32.9,30.18,NNW,339,4.0,10.0,58,0.00,,---,0.01,VWS V14.01,2013-12-07 21:36:00,
2013-12-07 13:41:00,46.9,32.9,30.17,NNW,344,4.0,11.0,58,0.00,,---,0.01,VWS V14.01,2013-12-07 21:41:00,
2013-12-07 13:46:00,47.1,34.4,30.18,NNW,337,12.0,12.0,61,0.00,,---,0.01,VWS V14.01,2013-12-07 21:46:00,
2013-12-07 13:51:00,47.1,35.2,30.18,North,7,9.0,12.0,63,0.00,,---,0.01,VWS V14.01,2013-12-07 21:51:00,
2013-12-07 13:56:00,46.8,35.3,30.19,NNE,20,8.0,16.0,64,0.00,,---,0.01,VWS V14.01,2013-12-07 21:56:00,
2013-12-07 14:01:00,46.4,35.3,30.19,North,359,6.0,10.0,65,0.00,,---,0.01,VWS V14.01,2013-12-07 22:01:00,
2013-12-07 14:06:00,46.1,34.6,30.19,NNE,15,7.0,11.0,64,0.00,,---,0.01,VWS V14.01,2013-12-07 22:06:00,
2013-12-07 14:11:00,46.0,34.9,30.19,NNE,26,2.0,11.0,65,0.00,,---,0.01,VWS V14.01,2013-12-07 22:11:00,
2013-12-07 14:16:00,45.8,34.7,30.19,NNE,16,6.0,11.0,65,0.00,,---,0.01,VWS V14.01,2013-12-07 22:16:00,
2013-12-07 14:21:00,45.5,34.4,30.20,North,2,5.0,11.0,65,0.00,,---,0.01,VWS V14.01,2013-12-07 22:21:00,
2013-12-07 14:26:00,45.3,34.6,30.20,North,0,4.0,11.0,66,0.00,,---,0.01,VWS V14.01,2013-12-07 22:26:00,
2013-12-07 14:31:00,45.2,34.5,30.21,North,1,5.0,6.0,66,0.00,,---,0.01,VWS V14.01,2013-12-07 22:31:00,
2013-12-07 14:36:00,45.2,34.2,30.20,North,11,4.0,10.0,65,0.00,,---,0.01,VWS V14.01,2013-12-07 22:36:00,
2013-12-07 14:41:00,45.3,34.6,30.20,North,11,3.0,10.0,66,0.00,,---,0.01,VWS V14.01,2013-12-07 22:41:00,
2013-12-07 14:46:00,45.2,34.5,30.20,North,4,4.0,10.0,66,0.00,,---,0.01,VWS V14.01,2013-12-07 22:46:00,
2013-12-07 14:51:00,45.3,34.6,30.21,North,8,6.0,10.0,66,0.00,,---,0.01,VWS V14.01,2013-12-07 22:51:00,
2013-12-07 14:56:00,45.3,34.6,30.21,NNE,16,0.0,10.0,66,0.00,,---,0.01,VWS V14.01,2013-12-07 22:56:00,
2013-12-07 15:01:00,45.4,34.7,30.21,NNE,15,2.0,5.0,66,0.00,,---,0.01,VWS V14.01,2013-12-07 23:01:00,
2013-12-07 15:06:00,45.4,34.3,30.22,NNE,15,3.0,5.0,65,0.00,,---,0.01,VWS V14.01,2013-12-07 23:06:00,
2013-12-07 15:11:00,45.3,34.2,30.22,NNE,12,3.0,6.0,65,0.00,,---,0.01,VWS V14.01,2013-12-07 23:11:00,
2013-12-07 15:16:00,45.2,33.8,30.22,NE,39,2.0,6.0,64,0.00,,---,0.01,VWS V14.01,2013-12-07 23:16:00,
2013-12-07 15:21:00,45.2,33.4,30.22,NE,40,2.0,6.0,63,0.00,,---,0.01,VWS V14.01,2013-12-07 23:21:00,
2013-12-07 15:26:00,45.3,33.1,30.22,North,9,5.0,8.0,62,0.00,,---,0.01,VWS V14.01,2013-12-07 23:26:00,
2013-12-07 15:31:00,45.2,33.0,30.22,NNE,25,2.0,5.0,62,0.00,,---,0.01,VWS V14.01,2013-12-07 23:31:00,
2013-12-07 15:36:00,45.0,32.4,30.23,NNE,28,0.0,5.0,61,0.00,,---,0.01,VWS V14.01,2013-12-07 23:36:00,
2013-12-07 15:41:00,44.9,31.9,30.23,NNE,29,2.0,5.0,60,0.00,,---,0.01,VWS V14.01,2013-12-07 23:41:00,
2013-12-07 15:46:00,44.7,31.3,30.23,NNE,32,1.0,5.0,59,0.00,,---,0.01,VWS V14.01,2013-12-07 23:46:00,
2013-12-07 15:51:00,44.6,31.2,30.23,NNE,32,2.0,5.0,59,0.00,,---,0.01,VWS V14.01,2013-12-07 23:51:00,
2013-12-07 15:56:00,44.5,31.5,30.24,NNE,32,1.0,5.0,60,0.00,,---,0.01,VWS V14.01,2013-12-07 23:56:00,
2013-12-07 16:01:00,44.5,32.3,30.24,NNE,32,0.0,3.0,62,0.00,,---,0.01,VWS V14.01,2013-12-08 00:01:00,
2013-12-07 16:06:00,44.4,32.2,30.25,NNE,32,1.0,3.0,62,0.00,,---,0.01,VWS V14.01,2013-12-08 00:06:00,
2013-12-07 16:11:00,44.3,32.1,30.25,NNE,32,0.0,3.0,62,0.00,,---,0.01,VWS V14.01,2013-12-08 00:11:00,
2013-12-07 16:16:00,44.3,32.5,30.25,NNE,32,0.0,3.0,63,0.00,,---,0.01,VWS V14.01,2013-12-08 00:16:00,
2013-12-07 16:22:00,44.2,32.4,30.25,NNE,32,0.0,3.0,63,0.00,,---,0.01,VWS V14.01,2013-12-08 00:22:00,
2013-12-07 16:27:00,44.1,32.3,30.26,NNE,32,0.0,3.0,63,0.00,,---,0.01,VWS V14.01,2013-12-08 00:27:00,
2013-12-07 16:32:00,44.0,33.0,30.26,NNE,32,0.0,0.0,65,0.00,,---,0.01,VWS V14.01,2013-12-08 00:32:00,
2013-12-07 16:37:00,43.7,33.1,30.26,NNE,32,0.0,0.0,66,0.00,,---,0.01,VWS V14.01,2013-12-08 00:37:00,
2013-12-07 16:42:00,43.5,32.9,30.26,NNE,32,0.0,0.0,66,0.00,,---,0.01,VWS V14.01,2013-12-08 00:42:00,
2013-12-07 16:47:00,43.2,33.0,30.26,NNE,32,0.0,0.0,67,0.00,,---,0.01,VWS V14.01,2013-12-08 00:47:00,
2013-12-07 16:52:00,42.9,33.1,30.26,NNE,32,0.0,0.0,68,0.00,,---,0.01,VWS V14.01,2013-12-08 00:52:00,
2013-12-07 16:57:00,42.6,32.4,30.27,NNE,32,0.0,0.0,67,0.00,,---,0.01,VWS V14.01,2013-12-08 00:57:00,
2013-12-07 17:02:00,42.4,32.2,30.28,NNE,32,0.0,0.0,67,0.00,,---,0.01,VWS V14.01,2013-12-08 01:02:00,
2013-12-07 17:07:00,42.1,32.7,30.27,NNE,32,0.0,0.0,69,0.00,,---,0.01,VWS V14.01,2013-12-08 01:07:00,
2013-12-07 17:12:00,41.7,32.7,30.28,NNE,32,0.0,0.0,70,0.00,,---,0.01,VWS V14.01,2013-12-08 01:12:00,
2013-12-07 17:17:00,41.3,32.6,30.28,NNE,32,0.0,0.0,71,0.00,,---,0.01,VWS V14.01,2013-12-08 01:17:00,
2013-12-07 17:22:00,41.2,32.5,30.28,NNE,32,0.0,0.0,71,0.00,,---,0.01,VWS V14.01,2013-12-08 01:22:00,
2013-12-07 17:27:00,41.0,32.3,30.28,NNE,32,0.0,0.0,71,0.00,,---,0.01,VWS V14.01,2013-12-08 01:27:00,
2013-12-07 17:32:00,40.8,32.5,30.28,NNE,32,0.0,0.0,72,0.00,,---,0.01,VWS V14.01,2013-12-08 01:32:00,
2013-12-07 17:37:00,40.6,32.6,30.29,NNE,32,0.0,0.0,73,0.00,,---,0.01,VWS V14.01,2013-12-08 01:37:00,
2013-12-07 17:42:00,40.3,32.3,30.30,NNE,32,0.0,0.0,73,0.00,,---,0.01,VWS V14.01,2013-12-08 01:42:00,
2013-12-07 17:47:00,40.0,32.1,30.30,NNE,32,0.0,0.0,73,0.00,,---,0.01,VWS V14.01,2013-12-08 01:47:00,
2013-12-07 17:52:00,39.9,32.3,30.30,NNE,32,0.0,0.0,74,0.00,,---,0.01,VWS V14.01,2013-12-08 01:52:00,
2013-12-07 17:57:00,39.8,32.2,30.30,NNE,32,0.0,0.0,74,0.00,,---,0.01,VWS V14.01,2013-12-08 01:57:00,
2013-12-07 18:02:00,39.9,32.3,30.30,NNE,32,0.0,0.0,74,0.00,,---,0.01,VWS V14.01,2013-12-08 02:02:00,
2013-12-07 18:07:00,40.2,32.2,30.31,NNE,32,0.0,0.0,73,0.00,,---,0.01,VWS V14.01,2013-12-08 02:07:00,
2013-12-07 18:12:00,40.3,32.3,30.31,NNE,32,0.0,0.0,73,0.00,,---,0.01,VWS V14.01,2013-12-08 02:12:00,
2013-12-07 18:17:00,40.5,32.2,30.31,NNE,32,0.0,0.0,72,0.00,,---,0.01,VWS V14.01,2013-12-08 02:17:00,
2013-12-07 18:22:00,40.5,32.2,30.31,NNE,32,0.0,0.0,72,0.00,,---,0.01,VWS V14.01,2013-12-08 02:22:00,
2013-12-07 18:27:00,40.3,32.0,30.30,NNE,32,0.0,0.0,72,0.00,,---,0.01,VWS V14.01,2013-12-08 02:27:00,
2013-12-07 18:32:00,40.2,31.9,30.30,NNE,32,0.0,0.0,72,0.00,,---,0.01,VWS V14.01,2013-12-08 02:32:00,
2013-12-07 18:37:00,39.9,32.0,30.31,NNE,32,0.0,0.0,73,0.00,,---,0.01,VWS V14.01,2013-12-08 02:37:00,
2013-12-07 18:42:00,39.5,31.9,30.31,NNE,32,0.0,0.0,74,0.00,,---,0.01,VWS V14.01,2013-12-08 02:42:00,
2013-12-07 18:47:00,39.2,32.0,30.30,NNE,32,0.0,0.0,75,0.00,,---,0.01,VWS V14.01,2013-12-08 02:47:00,
2013-12-07 18:52:00,39.3,31.4,30.31,NNE,32,0.0,0.0,73,0.00,,---,0.01,VWS V14.01,2013-12-08 02:52:00,
2013-12-07 18:57:00,39.3,31.7,30.31,NNE,32,0.0,0.0,74,0.00,,---,0.01,VWS V14.01,2013-12-08 02:57:00,
2013-12-07 19:02:00,39.0,31.4,30.31,NNE,32,0.0,0.0,74,0.00,,---,0.01,VWS V14.01,2013-12-08 03:02:00,
2013-12-07 19:07:00,38.6,31.4,30.31,NNE,32,0.0,0.0,75,0.00,,---,0.01,VWS V14.01,2013-12-08 03:07:00,
2013-12-07 19:12:00,38.4,31.5,30.32,NNE,32,0.0,0.0,76,0.00,,---,0.01,VWS V14.01,2013-12-08 03:12:00,
2013-12-07 19:17:00,38.2,31.3,30.32,NNE,32,0.0,0.0,76,0.00,,---,0.01,VWS V14.01,2013-12-08 03:17:00,
2013-12-07 19:22:00,37.9,31.4,30.32,NNE,32,0.0,0.0,77,0.00,,---,0.01,VWS V14.01,2013-12-08 03:22:00,
2013-12-07 19:27:00,37.7,31.5,30.32,NNE,32,0.0,0.0,78,0.00,,---,0.01,VWS V14.01,2013-12-08 03:27:00,
2013-12-07 19:32:00,37.4,31.2,30.32,NNE,32,0.0,0.0,78,0.00,,---,0.01,VWS V14.01,2013-12-08 03:32:00,
2013-12-07 19:37:00,37.2,31.0,30.32,NNE,32,0.0,0.0,78,0.00,,---,0.01,VWS V14.01,2013-12-08 03:37:00,
2013-12-07 19:42:00,37.1,31.5,30.32,NNE,32,0.0,0.0,80,0.00,,---,0.01,VWS V14.01,2013-12-08 03:42:00,
2013-12-07 19:47:00,36.8,30.9,30.33,NNE,32,0.0,0.0,79,0.00,,---,0.01,VWS V14.01,2013-12-08 03:47:00,
2013-12-07 19:52:00,36.5,30.6,30.33,NNE,32,0.0,0.0,79,0.00,,---,0.01,VWS V14.01,2013-12-08 03:52:00,
2013-12-07 19:57:00,36.5,31.2,30.32,NNE,32,0.0,0.0,81,0.00,,---,0.01,VWS V14.01,2013-12-08 03:57:00,
2013-12-07 20:02:00,36.3,31.0,30.33,NNE,32,0.0,0.0,81,0.00,,---,0.01,VWS V14.01,2013-12-08 04:02:00,
2013-12-07 20:07:00,36.2,30.9,30.33,NNE,32,0.0,0.0,81,0.00,,---,0.01,VWS V14.01,2013-12-08 04:07:00,
2013-12-07 20:12:00,36.0,30.8,30.33,NNE,32,0.0,0.0,81,0.00,,---,0.01,VWS V14.01,2013-12-08 04:12:00,
2013-12-07 20:17:00,35.9,31.0,30.34,NNE,32,0.0,0.0,82,0.00,,---,0.01,VWS V14.01,2013-12-08 04:17:00,
2013-12-07 20:22:00,35.9,31.0,30.34,NNE,32,0.0,0.0,82,0.00,,---,0.01,VWS V14.01,2013-12-08 04:22:00,
2013-12-07 20:27:00,35.4,30.2,30.34,NNE,32,0.0,0.0,81,0.00,,---,0.01,VWS V14.01,2013-12-08 04:27:00,
2013-12-07 20:32:00,35.2,30.3,30.35,NNE,32,0.0,0.0,82,0.00,,---,0.01,VWS V14.01,2013-12-08 04:32:00,
2013-12-07 20:37:00,35.0,30.1,30.35,NNE,32,0.0,0.0,82,0.00,,---,0.01,VWS V14.01,2013-12-08 04:37:00,
2013-12-07 20:42:00,35.0,30.4,30.35,NNE,32,0.0,0.0,83,0.00,,---,0.01,VWS V14.01,2013-12-08 04:42:00,
2013-12-07 20:47:00,34.8,30.2,30.35,NNE,32,0.0,0.0,83,0.00,,---,0.01,VWS V14.01,2013-12-08 04:47:00,
2013-12-07 20:52:00,34.9,30.3,30.36,NNE,32,0.0,0.0,83,0.00,,---,0.01,VWS V14.01,2013-12-08 04:52:00,
2013-12-07 20:57:00,34.8,30.5,30.35,NNE,32,0.0,0.0,84,0.00,,---,0.01,VWS V14.01,2013-12-08 04:57:00,
2013-12-07 21:01:00,34.9,30.3,30.35,NNE,32,0.0,0.0,83,0.00,,---,0.01,VWS V14.01,2013-12-08 05:01:00,
2013-12-07 21:02:00,35.0,30.7,30.36,NNE,32,0.0,0.0,84,0.00,,---,0.01,VWS V14.01,2013-12-08 05:02:00,
2013-12-07 21:03:00,34.9,30.6,30.35,NNE,32,0.0,0.0,84,0.00,,---,0.01,VWS V14.01,2013-12-08 05:03:00,
2013-12-07 21:04:00,34.9,30.3,30.36,NNE,32,0.0,0.0,83,0.00,,---,0.01,VWS V14.01,2013-12-08 05:04:00,
2013-12-07 21:05:00,34.9,30.3,30.36,NNE,32,0.0,0.0,83,0.00,,---,0.01,VWS V14.01,2013-12-08 05:05:00,
2013-12-07 21:08:00,34.7,30.1,30.36,NNE,32,0.0,0.0,83,0.00,,---,0.01,VWS V14.01,2013-12-08 05:08:00,
2013-12-07 21:13:00,34.5,30.2,30.36,NNE,32,0.0,0.0,84,0.00,,---,0.01,VWS V14.01,2013-12-08 05:13:00,
2013-12-07 21:18:00,34.4,30.1,30.35,NNE,32,0.0,0.0,84,0.00,,---,0.01,VWS V14.01,2013-12-08 05:18:00,
2013-12-07 21:23:00,34.3,30.0,30.35,NNE,32,0.0,0.0,84,0.00,,---,0.01,VWS V14.01,2013-12-08 05:23:00,
2013-12-07 21:28:00,34.3,30.3,30.35,NNE,32,0.0,0.0,85,0.00,,---,0.01,VWS V14.01,2013-12-08 05:28:00,
2013-12-07 21:33:00,34.2,30.2,30.35,NNE,32,0.0,0.0,85,0.00,,---,0.01,VWS V14.01,2013-12-08 05:33:00,
2013-12-07 21:38:00,34.1,29.8,30.35,NNE,32,0.0,0.0,84,0.00,,---,0.01,VWS V14.01,2013-12-08 05:38:00,
2013-12-07 21:43:00,34.1,30.1,30.35,NNE,32,0.0,0.0,85,0.00,,---,0.01,VWS V14.01,2013-12-08 05:43:00,
2013-12-07 21:48:00,34.0,30.0,30.36,NNE,32,0.0,0.0,85,0.00,,---,0.01,VWS V14.01,2013-12-08 05:48:00,
2013-12-07 21:53:00,33.9,29.9,30.36,NNE,32,0.0,0.0,85,0.00,,---,0.01,VWS V14.01,2013-12-08 05:53:00,
2013-12-07 21:58:00,33.8,29.8,30.37,NNE,32,0.0,0.0,85,0.00,,---,0.01,VWS V14.01,2013-12-08 05:58:00,
2013-12-07 22:03:00,33.7,29.7,30.37,NNE,32,0.0,0.0,85,0.00,,---,0.01,VWS V14.01,2013-12-08 06:03:00,
2013-12-07 22:08:00,33.8,29.8,30.37,NNE,32,0.0,0.0,85,0.00,,---,0.01,VWS V14.01,2013-12-08 06:08:00,
2013-12-07 22:13:00,33.9,29.9,30.38,NNE,32,0.0,0.0,85,0.00,,---,0.01,VWS V14.01,2013-12-08 06:13:00,
2013-12-07 22:18:00,33.8,29.8,30.38,NNE,32,0.0,0.0,85,0.00,,---,0.01,VWS V14.01,2013-12-08 06:18:00,
2013-12-07 22:23:00,33.6,29.6,30.38,NNE,32,0.0,0.0,85,0.00,,---,0.01,VWS V14.01,2013-12-08 06:23:00,
2013-12-07 22:28:00,33.5,29.8,30.38,NNE,32,0.0,0.0,86,0.00,,---,0.01,VWS V14.01,2013-12-08 06:28:00,
2013-12-07 22:33:00,33.4,29.7,30.39,NNE,32,0.0,0.0,86,0.00,,---,0.01,VWS V14.01,2013-12-08 06:33:00,
2013-12-07 22:38:00,33.4,29.4,30.39,NNE,32,0.0,0.0,85,0.00,,---,0.01,VWS V14.01,2013-12-08 06:38:00,
2013-12-07 22:43:00,33.3,29.3,30.39,NNE,32,0.0,0.0,85,0.00,,---,0.01,VWS V14.01,2013-12-08 06:43:00,
2013-12-07 22:48:00,33.0,29.0,30.39,NNE,32,0.0,0.0,85,0.00,,---,0.01,VWS V14.01,2013-12-08 06:48:00,
2013-12-07 22:53:00,32.8,29.1,30.39,NNE,32,0.0,0.0,86,0.00,,---,0.01,VWS V14.01,2013-12-08 06:53:00,
2013-12-07 22:58:00,32.6,28.9,30.39,NNE,32,0.0,0.0,86,0.00,,---,0.01,VWS V14.01,2013-12-08 06:58:00,
2013-12-07 23:03:00,32.4,28.7,30.39,NNE,32,0.0,0.0,86,0.00,,---,0.01,VWS V14.01,2013-12-08 07:03:00,
2013-12-07 23:08:00,32.2,28.5,30.39,NNE,32,0.0,0.0,86,0.00,,---,0.01,VWS V14.01,2013-12-08 07:08:00,
2013-12-07 23:13:00,32.1,28.4,30.39,NNE,32,0.0,0.0,86,0.00,,---,0.01,VWS V14.01,2013-12-08 07:13:00,
2013-12-07 23:18:00,31.9,28.2,30.40,NNE,32,0.0,0.0,86,0.00,,---,0.01,VWS V14.01,2013-12-08 07:18:00,
2013-12-07 23:23:00,31.9,28.5,30.40,NNE,32,0.0,1.0,87,0.00,,---,0.01,VWS V14.01,2013-12-08 07:23:00,
2013-12-07 23:28:00,31.9,28.8,30.40,NNE,32,1.0,2.0,88,0.00,,---,0.01,VWS V14.01,2013-12-08 07:28:00,
2013-12-07 23:33:00,32.1,29.2,30.40,NNE,32,2.0,3.0,89,0.00,,---,0.01,VWS V14.01,2013-12-08 07:33:00,
2013-12-07 23:38:00,32.4,29.5,30.40,NNE,32,1.0,3.0,89,0.00,,---,0.01,VWS V14.01,2013-12-08 07:38:00,
2013-12-07 23:43:00,32.6,29.7,30.40,NNE,32,2.0,3.0,89,0.00,,---,0.01,VWS V14.01,2013-12-08 07:43:00,
2013-12-07 23:48:00,32.8,29.9,30.41,NNE,32,2.0,3.0,89,0.00,,---,0.01,VWS V14.01,2013-12-08 07:48:00,
2013-12-07 23:53:00,33.0,30.1,30.41,NNE,32,2.0,3.0,89,0.00,,---,0.01,VWS V14.01,2013-12-08 07:53:00,
2013-12-07 23:58:00,33.0,29.8,30.41,NNE,32,0.0,3.0,88,0.00,,---,0.01,VWS V14.01,2013-12-08 07:58:00,